createdAt,value
2017-07-28T00:00:07.927Z,70.09
2017-07-28T00:02:35.927Z,69.72
2017-07-28T00:05:03.608Z,70.61
2017-07-28T00:07:31.330Z,71.07
2017-07-28T00:09:59.138Z,70.95
2017-07-28T00:12:26.869Z,67.94
2017-07-28T00:14:54.530Z,69.86
2017-07-28T00:17:22.497Z,69.69
2017-07-28T00:19:50.405Z,69.14
2017-07-28T00:22:18.111Z,68.27
2017-07-28T00:24:46.097Z,69.38
2017-07-28T00:27:13.897Z,70.64
2017-07-28T00:29:41.831Z,69.41
2017-07-28T00:32:09.627Z,70.18
2017-07-28T00:34:37.605Z,69.96
2017-07-28T00:37:05.261Z,68.67
2017-07-28T00:39:33.302Z,69.09
2017-07-28T00:42:01.005Z,69.85
2017-07-28T00:44:28.838Z,69.83
2017-07-28T00:46:56.581Z,69.31
2017-07-28T00:49:24.571Z,69.99
2017-07-28T00:51:52.310Z,72.00
2017-07-28T00:54:20.182Z,71.23
2017-07-28T00:56:47.990Z,70.56
2017-07-28T00:59:15.715Z,69.63
2017-07-28T01:01:43.706Z,69.64
2017-07-28T01:04:11.650Z,69.87
2017-07-28T01:06:39.765Z,69.52
2017-07-28T01:09:07.744Z,70.23
2017-07-28T01:11:35.475Z,70.24
2017-07-28T01:14:03.193Z,71.18
2017-07-28T01:16:30.982Z,69.08
2017-07-28T01:18:58.808Z,68.83
2017-07-28T01:21:26.648Z,70.52
2017-07-28T01:23:54.383Z,70.06
2017-07-28T01:26:22.402Z,71.72
2017-07-28T01:28:50.041Z,71.08
2017-07-28T01:31:17.929Z,71.90
2017-07-28T01:33:45.702Z,70.91
2017-07-28T01:36:13.455Z,70.73
2017-07-28T01:38:41.506Z,70.21
2017-07-28T01:41:09.257Z,70.33
2017-07-28T01:43:37.220Z,69.20
2017-07-28T01:46:04.924Z,69.53
2017-07-28T01:48:32.754Z,69.63
2017-07-28T01:51:01.620Z,70.00
2017-07-28T01:53:29.552Z,68.99
2017-07-28T01:55:57.280Z,69.18
2017-07-28T01:58:25.286Z,69.62
2017-07-28T02:00:53.314Z,68.17
2017-07-28T02:03:21.210Z,69.31
2017-07-28T02:05:49.093Z,69.08
2017-07-28T02:08:17.166Z,69.03
2017-07-28T02:10:45.008Z,68.98
2017-07-28T02:13:12.744Z,69.00
2017-07-28T02:15:40.765Z,69.79
2017-07-28T02:18:08.610Z,69.98
2017-07-28T02:20:36.352Z,70.21
2017-07-28T02:23:04.365Z,70.58
2017-07-28T02:25:32.084Z,70.53
2017-07-28T02:27:59.910Z,70.45
2017-07-28T02:30:27.868Z,70.54
2017-07-28T02:32:55.835Z,69.86
2017-07-28T02:35:23.552Z,72.11
2017-07-28T02:37:51.419Z,70.37
2017-07-28T02:40:19.282Z,72.05
2017-07-28T02:42:47.096Z,70.01
2017-07-28T02:45:15.065Z,70.58
2017-07-28T02:47:42.963Z,70.60
2017-07-28T02:50:10.903Z,70.48
2017-07-28T02:52:38.944Z,69.58
2017-07-28T02:55:06.888Z,69.82
2017-07-28T02:57:34.830Z,70.55
2017-07-28T03:00:02.782Z,69.57
2017-07-28T03:02:30.614Z,69.36
2017-07-28T03:04:58.512Z,70.05
2017-07-28T03:07:26.442Z,69.43
2017-07-28T03:09:54.388Z,68.33
2017-07-28T03:12:22.141Z,69.63
2017-07-28T03:14:50.172Z,69.46
2017-07-28T03:17:17.913Z,69.01
2017-07-28T03:19:45.921Z,69.56
2017-07-28T03:22:13.949Z,69.73
2017-07-28T03:24:41.644Z,69.87
2017-07-28T03:27:09.316Z,69.45
2017-07-28T03:29:37.025Z,70.38
2017-07-28T03:32:05.056Z,68.49
2017-07-28T03:34:32.682Z,69.35
2017-07-28T03:37:00.551Z,71.12
2017-07-28T03:39:28.253Z,69.62
2017-07-28T03:41:55.902Z,70.29
2017-07-28T03:44:23.928Z,70.42
2017-07-28T03:46:51.636Z,70.58
2017-07-28T03:49:19.361Z,69.46
2017-07-28T03:51:47.328Z,70.03
2017-07-28T03:54:15.239Z,69.66
2017-07-28T03:56:43.087Z,70.34
2017-07-28T03:59:10.966Z,70.02
2017-07-28T04:01:39.044Z,70.40
2017-07-28T04:04:06.812Z,70.05
2017-07-28T04:06:34.562Z,70.25
2017-07-28T04:09:02.439Z,70.29
2017-07-28T04:11:30.165Z,70.22
2017-07-28T04:13:58.228Z,68.69
2017-07-28T04:16:26.062Z,70.09
2017-07-28T04:18:53.684Z,68.91
2017-07-28T04:21:21.407Z,68.55
2017-07-28T04:23:49.298Z,69.01
2017-07-28T04:26:17.305Z,68.88
2017-07-28T04:28:45.376Z,68.75
2017-07-28T04:31:12.985Z,69.23
2017-07-28T04:33:40.601Z,68.51
2017-07-28T04:36:08.454Z,67.04
2017-07-28T04:38:36.422Z,67.38
2017-07-28T04:41:04.021Z,67.20
2017-07-28T04:43:31.678Z,67.26
2017-07-28T04:45:59.319Z,67.64
2017-07-28T04:48:26.943Z,67.05
2017-07-28T04:50:54.654Z,66.66
2017-07-28T04:53:22.263Z,66.75
2017-07-28T04:55:49.869Z,65.95
2017-07-28T04:58:17.553Z,66.74
2017-07-28T05:00:45.310Z,67.30
2017-07-28T05:03:12.968Z,66.00
2017-07-28T05:05:40.629Z,67.24
2017-07-28T05:08:08.253Z,66.76
2017-07-28T05:10:35.880Z,65.48
2017-07-28T05:13:03.555Z,66.40
2017-07-28T05:15:31.168Z,67.90
2017-07-28T05:17:58.799Z,66.59
2017-07-28T05:20:26.463Z,66.37
2017-07-28T05:22:54.062Z,65.31
2017-07-28T05:25:21.672Z,65.89
2017-07-28T05:27:49.332Z,65.67
2017-07-28T05:30:16.961Z,64.11
2017-07-28T05:32:44.572Z,64.98
2017-07-28T05:35:12.236Z,63.58
2017-07-28T05:37:39.860Z,63.69
2017-07-28T05:40:07.477Z,62.45
2017-07-28T05:42:35.158Z,63.13
2017-07-28T05:45:02.779Z,61.68
2017-07-28T05:47:30.388Z,62.93
2017-07-28T05:49:58.142Z,62.06
2017-07-28T05:52:25.784Z,61.90
2017-07-28T05:54:53.390Z,62.81
2017-07-28T05:57:21.063Z,62.42
2017-07-28T05:59:48.673Z,61.92
2017-07-28T06:02:16.371Z,62.13
2017-07-28T06:04:44.045Z,62.41
2017-07-28T06:07:11.669Z,62.91
2017-07-28T06:09:39.277Z,60.84
2017-07-28T06:12:06.943Z,60.03
2017-07-28T06:14:34.608Z,60.94
2017-07-28T06:17:02.388Z,58.84
2017-07-28T06:19:30.049Z,57.21
2017-07-28T06:21:57.651Z,57.91
2017-07-28T06:24:25.255Z,57.53
2017-07-28T06:26:52.983Z,56.66
2017-07-28T06:29:20.585Z,55.82
2017-07-28T06:31:48.182Z,55.20
2017-07-28T06:34:15.873Z,54.84
2017-07-28T06:36:43.490Z,53.96
2017-07-28T06:39:11.103Z,54.41
2017-07-28T06:41:38.936Z,54.41
2017-07-28T06:44:06.537Z,54.61
2017-07-28T06:46:34.141Z,58.09
2017-07-28T06:49:01.800Z,54.91
2017-07-28T06:51:29.385Z,55.49
2017-07-28T06:53:57.009Z,54.64
2017-07-28T06:56:24.690Z,54.24
2017-07-28T06:58:52.283Z,53.43
2017-07-28T07:01:19.888Z,52.92
2017-07-28T07:03:47.616Z,52.37
2017-07-28T07:06:15.224Z,50.37
2017-07-28T07:08:42.833Z,50.72
2017-07-28T07:11:10.494Z,48.81
2017-07-28T07:13:38.174Z,46.70
2017-07-28T07:16:05.786Z,45.41
2017-07-28T07:18:33.447Z,45.62
2017-07-28T07:21:01.202Z,44.16
2017-07-28T07:23:28.815Z,42.54
2017-07-28T07:25:56.467Z,41.35
2017-07-28T07:28:24.077Z,40.35
2017-07-28T07:30:51.676Z,39.19
2017-07-28T07:33:19.355Z,41.27
2017-07-28T07:35:46.969Z,43.35
2017-07-28T07:38:14.578Z,44.97
2017-07-28T07:40:42.255Z,40.56
2017-07-28T07:43:09.923Z,38.74
2017-07-28T07:45:37.527Z,37.41
2017-07-28T07:48:05.174Z,36.50
2017-07-28T07:50:32.780Z,32.84
2017-07-28T07:53:00.397Z,35.16
2017-07-28T07:55:28.053Z,37.71
2017-07-28T07:57:55.650Z,38.73
2017-07-28T08:00:23.249Z,40.26
2017-07-28T08:02:50.915Z,38.84
2017-07-28T08:05:18.537Z,36.86
2017-07-28T08:07:46.133Z,34.46
2017-07-28T08:10:13.970Z,37.68
2017-07-28T08:12:41.572Z,38.22
2017-07-28T08:15:09.169Z,38.21
2017-07-28T08:17:36.843Z,39.05
2017-07-28T08:20:04.485Z,39.51
2017-07-28T08:22:32.129Z,36.91
2017-07-28T08:24:59.824Z,35.71
2017-07-28T08:27:27.456Z,35.63
2017-07-28T08:29:55.084Z,35.01
2017-07-28T08:32:22.738Z,34.82
2017-07-28T08:34:50.359Z,34.02
2017-07-28T08:37:17.961Z,33.47
2017-07-28T08:39:46.096Z,34.18
2017-07-28T08:42:13.698Z,34.13
2017-07-28T08:44:41.298Z,34.64
2017-07-28T08:47:08.981Z,34.56
2017-07-28T08:49:36.595Z,32.93
2017-07-28T08:52:04.211Z,34.53
2017-07-28T08:54:31.908Z,36.58
2017-07-28T08:56:59.538Z,36.10
2017-07-28T08:59:27.153Z,34.72
2017-07-28T09:01:54.827Z,34.06
2017-07-28T09:04:22.421Z,32.39
2017-07-28T09:06:50.070Z,34.28
2017-07-28T09:09:17.756Z,33.08
2017-07-28T09:11:45.363Z,34.75
2017-07-28T09:14:12.974Z,33.55
2017-07-28T09:16:40.650Z,33.49
2017-07-28T09:19:08.274Z,32.80
2017-07-28T09:21:35.926Z,33.70
2017-07-28T09:24:03.622Z,31.38
2017-07-28T09:26:31.221Z,31.62
2017-07-28T09:28:58.840Z,32.56
2017-07-28T09:31:26.536Z,32.24
2017-07-28T09:33:54.157Z,35.33
2017-07-28T09:36:21.764Z,32.69
2017-07-28T09:38:49.507Z,31.68
2017-07-28T09:41:17.141Z,30.62
2017-07-28T09:43:44.760Z,31.13
2017-07-28T09:46:12.478Z,31.10
2017-07-28T09:48:40.077Z,34.58
2017-07-28T09:51:07.699Z,31.42
2017-07-28T09:53:35.375Z,29.68
2017-07-28T09:56:03.005Z,29.71
2017-07-28T09:58:30.626Z,29.99
2017-07-28T10:00:58.319Z,29.99
2017-07-28T10:03:25.936Z,28.33
2017-07-28T10:05:53.560Z,29.40
2017-07-28T10:08:21.308Z,31.10
2017-07-28T10:10:48.917Z,34.87
2017-07-28T10:13:16.516Z,33.14
2017-07-28T10:15:44.190Z,31.85
2017-07-28T10:18:11.817Z,31.69
2017-07-28T10:20:39.448Z,31.88
2017-07-28T10:23:07.261Z,30.54
2017-07-28T10:25:34.887Z,30.76
2017-07-28T10:28:02.521Z,29.91
2017-07-28T10:30:30.197Z,31.54
2017-07-28T10:32:57.814Z,31.87
2017-07-28T10:35:25.425Z,31.20
2017-07-28T10:37:53.113Z,31.93
2017-07-28T10:40:20.720Z,34.12
2017-07-28T10:42:48.374Z,32.90
2017-07-28T10:45:16.042Z,35.46
2017-07-28T10:47:43.779Z,32.64
2017-07-28T10:50:11.390Z,35.94
2017-07-28T10:52:39.066Z,32.36
2017-07-28T10:55:06.692Z,33.66
2017-07-28T10:57:34.309Z,34.72
2017-07-28T11:00:01.990Z,34.19
2017-07-28T11:02:29.689Z,35.33
2017-07-28T11:04:57.327Z,33.63
2017-07-28T11:07:25.021Z,32.47
2017-07-28T11:09:52.695Z,35.61
2017-07-28T11:12:20.333Z,33.70
2017-07-28T11:14:48.167Z,33.67
2017-07-28T11:17:15.908Z,33.73
2017-07-28T11:19:43.542Z,32.12
2017-07-28T11:22:12.932Z,32.40
2017-07-28T11:24:40.812Z,35.63
2017-07-28T11:27:08.479Z,35.11
2017-07-28T11:29:36.162Z,33.76
2017-07-28T11:32:03.957Z,32.35
2017-07-28T11:34:31.710Z,33.72
2017-07-28T11:36:59.383Z,33.99
2017-07-28T11:39:27.116Z,35.36
2017-07-28T11:41:54.892Z,35.51
2017-07-28T11:44:22.640Z,34.48
2017-07-28T11:46:54.666Z,33.90
2017-07-28T11:49:22.339Z,33.00
2017-07-28T11:51:51.131Z,35.56
2017-07-28T11:54:19.006Z,34.00
2017-07-28T11:56:46.650Z,34.65
2017-07-28T11:59:14.453Z,34.92
2017-07-28T12:01:42.194Z,35.98
2017-07-28T12:04:09.884Z,38.30
2017-07-28T12:06:37.563Z,40.33
2017-07-28T12:09:06.042Z,40.58
2017-07-28T12:11:33.927Z,37.47
2017-07-28T12:14:02.670Z,39.34
2017-07-28T12:16:30.370Z,39.28
2017-07-28T12:18:57.979Z,40.87
2017-07-28T12:21:26.071Z,39.46
2017-07-28T12:23:54.041Z,38.85
2017-07-28T12:26:21.869Z,39.32
2017-07-28T12:28:49.989Z,38.61
2017-07-28T12:31:17.847Z,38.74
2017-07-28T12:33:45.441Z,41.56
2017-07-28T12:36:13.171Z,40.17
2017-07-28T12:38:40.869Z,39.05
2017-07-28T12:41:08.470Z,37.92
2017-07-28T12:43:36.176Z,34.85
2017-07-28T12:46:03.875Z,34.41
2017-07-28T12:48:31.486Z,37.93
2017-07-28T12:50:59.091Z,36.41
2017-07-28T12:53:26.759Z,37.16
2017-07-28T12:55:54.369Z,38.29
2017-07-28T12:58:21.980Z,38.19
2017-07-28T13:00:49.646Z,39.33
2017-07-28T13:03:17.245Z,41.81
2017-07-28T13:05:44.862Z,41.70
2017-07-28T13:08:13.347Z,41.20
2017-07-28T13:10:41.211Z,41.65
2017-07-28T13:13:08.850Z,39.74
2017-07-28T13:15:36.613Z,41.90
2017-07-28T13:18:04.230Z,40.35
2017-07-28T13:20:31.841Z,41.71
2017-07-28T13:22:59.540Z,41.62
2017-07-28T13:25:27.169Z,41.42
2017-07-28T13:27:54.783Z,41.13
2017-07-28T13:30:22.449Z,42.40
2017-07-28T13:32:50.046Z,41.79
2017-07-28T13:35:17.677Z,42.48
2017-07-28T13:37:45.382Z,41.06
2017-07-28T13:40:12.995Z,41.66
2017-07-28T13:42:40.619Z,40.78
2017-07-28T13:45:08.305Z,42.78
2017-07-28T13:47:35.911Z,41.51
2017-07-28T13:50:03.528Z,42.36
2017-07-28T13:52:31.641Z,42.21
2017-07-28T13:54:59.252Z,41.63
2017-07-28T13:57:26.854Z,42.22
2017-07-28T13:59:54.548Z,42.69
2017-07-28T14:02:22.164Z,42.73
2017-07-28T14:04:49.797Z,42.43
2017-07-28T14:07:17.494Z,43.68
2017-07-28T14:09:45.119Z,41.80
2017-07-28T14:12:12.727Z,42.11
2017-07-28T14:14:40.517Z,42.08
2017-07-28T14:17:08.127Z,41.98
2017-07-28T14:19:35.753Z,40.27
2017-07-28T14:22:03.600Z,39.94
2017-07-28T14:24:31.345Z,39.42
2017-07-28T14:26:58.969Z,40.48
2017-07-28T14:29:26.656Z,40.98
2017-07-28T14:31:54.674Z,39.21
2017-07-28T14:34:22.325Z,40.02
2017-07-28T14:36:50.002Z,39.63
2017-07-28T14:39:17.613Z,40.72
2017-07-28T14:41:45.237Z,39.78
2017-07-28T14:44:12.901Z,41.06
2017-07-28T14:46:40.649Z,40.62
2017-07-28T14:49:08.281Z,40.19
2017-07-28T14:51:35.967Z,40.33
2017-07-28T14:54:03.588Z,42.14
2017-07-28T14:56:31.229Z,41.30
2017-07-28T14:58:58.888Z,41.93
2017-07-28T15:01:26.532Z,41.39
2017-07-28T15:03:54.146Z,40.59
2017-07-28T15:06:21.820Z,41.66
2017-07-28T15:08:49.446Z,41.78
2017-07-28T15:11:17.063Z,41.62
2017-07-28T15:13:44.778Z,43.17
2017-07-28T15:16:12.482Z,41.54
2017-07-28T15:18:40.086Z,42.76
2017-07-28T15:21:07.775Z,41.53
2017-07-28T15:23:35.438Z,42.56
2017-07-28T15:26:03.357Z,42.58
2017-07-28T15:28:31.103Z,42.65
2017-07-28T15:30:58.706Z,42.99
2017-07-28T15:33:26.336Z,43.90
2017-07-28T15:35:53.995Z,43.68
2017-07-28T15:38:21.610Z,43.53
2017-07-28T15:40:49.215Z,43.50
2017-07-28T15:43:16.892Z,43.38
2017-07-28T15:45:44.518Z,43.39
2017-07-28T15:48:12.177Z,43.63
2017-07-28T15:50:39.842Z,44.12
2017-07-28T15:53:07.519Z,44.72
2017-07-28T15:55:35.191Z,44.75
2017-07-28T15:58:03.052Z,45.36
2017-07-28T16:00:31.875Z,45.06
2017-07-28T16:03:00.688Z,46.04
2017-07-28T16:05:29.533Z,45.85
2017-07-28T16:07:57.673Z,46.08
2017-07-28T16:10:26.076Z,45.84
2017-07-28T16:12:54.087Z,46.33
2017-07-28T16:15:22.998Z,45.53
2017-07-28T16:17:53.449Z,46.10
2017-07-28T16:20:23.558Z,46.62
2017-07-28T16:22:51.212Z,45.79
2017-07-28T16:25:18.828Z,47.11
2017-07-28T16:27:46.496Z,48.07
2017-07-28T16:30:14.096Z,47.79
2017-07-28T16:32:41.703Z,48.50
2017-07-28T16:35:09.466Z,48.31
2017-07-28T16:37:37.094Z,48.23
2017-07-28T16:40:04.709Z,48.36
2017-07-28T16:42:32.392Z,48.93
2017-07-28T16:45:00.002Z,49.98
2017-07-28T16:47:27.593Z,48.41
2017-07-28T16:49:55.272Z,49.16
2017-07-28T16:52:22.910Z,50.34
2017-07-28T16:54:50.573Z,50.89
2017-07-28T16:57:18.263Z,51.04
2017-07-28T16:59:45.888Z,50.58
2017-07-28T17:02:14.246Z,53.21
2017-07-28T17:04:41.929Z,53.08
2017-07-28T17:07:09.541Z,52.29
2017-07-28T17:09:37.170Z,52.73
2017-07-28T17:12:04.846Z,56.56
2017-07-28T17:14:32.482Z,56.56
2017-07-28T17:17:00.126Z,56.90
2017-07-28T17:19:27.847Z,58.66
2017-07-28T17:21:55.468Z,59.63
2017-07-28T17:24:23.157Z,61.11
2017-07-28T17:26:50.818Z,59.79
2017-07-28T17:29:18.439Z,61.80
2017-07-28T17:31:46.075Z,63.97
2017-07-28T17:34:13.782Z,63.82
2017-07-28T17:36:41.457Z,65.97
2017-07-28T17:39:09.113Z,66.68
2017-07-28T17:41:36.811Z,68.14
2017-07-28T17:44:04.438Z,70.22
2017-07-28T17:46:32.073Z,68.57
2017-07-28T17:48:59.796Z,70.71
2017-07-28T17:51:27.410Z,72.05
2017-07-28T17:53:55.037Z,70.20
2017-07-28T17:56:22.725Z,71.61
2017-07-28T17:58:50.362Z,71.64
2017-07-28T18:01:17.986Z,74.48
2017-07-28T18:03:45.675Z,75.96
2017-07-28T18:06:13.315Z,76.16
2017-07-28T18:08:40.947Z,74.40
2017-07-28T18:11:08.663Z,75.31
2017-07-28T18:13:36.268Z,76.64
2017-07-28T18:16:03.911Z,77.33
2017-07-28T18:18:31.577Z,76.84
2017-07-28T18:20:59.260Z,77.36
2017-07-28T18:23:26.862Z,77.99
2017-07-28T18:25:54.546Z,78.42
2017-07-28T18:28:22.185Z,79.32
2017-07-28T18:30:49.934Z,79.45
2017-07-28T18:33:17.924Z,77.77
2017-07-28T18:35:45.540Z,79.82
2017-07-28T18:38:13.158Z,79.67
2017-07-28T18:40:40.821Z,78.74
2017-07-28T18:43:08.447Z,81.87
2017-07-28T18:45:36.077Z,82.80
2017-07-28T18:48:03.894Z,83.70
2017-07-28T18:50:31.516Z,83.88
2017-07-28T18:52:59.132Z,83.99
2017-07-28T18:55:26.823Z,84.52
2017-07-28T18:57:54.427Z,82.96
2017-07-28T19:00:22.071Z,84.78
2017-07-28T19:02:49.770Z,84.94
2017-07-28T19:05:17.409Z,84.37
2017-07-28T19:07:45.078Z,82.20
2017-07-28T19:10:12.760Z,87.15
2017-07-28T19:12:40.392Z,84.73
2017-07-28T19:15:08.006Z,85.65
2017-07-28T19:17:35.692Z,83.94
2017-07-28T19:20:03.314Z,81.83
2017-07-28T19:22:30.985Z,81.87
2017-07-28T19:24:58.654Z,79.07
2017-07-28T19:27:26.271Z,79.43
2017-07-28T19:29:53.881Z,79.61
2017-07-28T19:32:21.555Z,80.09
2017-07-28T19:34:49.182Z,81.17
2017-07-28T19:37:16.806Z,81.56
2017-07-28T19:39:44.513Z,81.16
2017-07-28T19:42:12.126Z,79.53
2017-07-28T19:44:39.767Z,82.09
2017-07-28T19:47:07.439Z,82.87
2017-07-28T19:49:35.080Z,84.00
2017-07-28T19:52:02.719Z,83.22
2017-07-28T19:54:30.411Z,81.99
2017-07-28T19:56:58.157Z,80.90
2017-07-28T19:59:25.777Z,80.76
2017-07-28T20:01:53.686Z,83.45
2017-07-28T20:04:21.307Z,81.45
2017-07-28T20:06:48.921Z,79.64
2017-07-28T20:09:16.821Z,79.59
2017-07-28T20:11:44.760Z,79.52
2017-07-28T20:14:12.377Z,79.39
2017-07-28T20:16:40.055Z,82.42
2017-07-28T20:19:07.741Z,81.04
2017-07-28T20:21:35.801Z,80.80
2017-07-28T20:24:03.532Z,82.12
2017-07-28T20:26:31.152Z,83.20
2017-07-28T20:28:58.769Z,80.93
2017-07-28T20:31:26.465Z,82.10
2017-07-28T20:33:54.207Z,83.92
2017-07-28T20:36:21.813Z,84.38
2017-07-28T20:38:49.475Z,81.59
2017-07-28T20:41:17.121Z,82.30
2017-07-28T20:43:44.740Z,82.23
2017-07-28T20:46:12.388Z,84.04
2017-07-28T20:48:40.259Z,84.56
2017-07-28T20:51:07.959Z,84.23
2017-07-28T20:53:35.995Z,84.92
2017-07-28T20:56:03.713Z,85.91
2017-07-28T20:58:31.402Z,86.73
2017-07-28T21:00:59.217Z,85.27
2017-07-28T21:03:26.861Z,86.71
2017-07-28T21:05:54.534Z,87.16
2017-07-28T21:08:22.203Z,86.21
2017-07-28T21:10:49.864Z,87.06
2017-07-28T21:13:17.704Z,85.59
2017-07-28T21:15:45.445Z,84.69
2017-07-28T21:18:13.413Z,83.18
2017-07-28T21:20:41.333Z,81.41
2017-07-28T21:23:09.356Z,81.80
2017-07-28T21:25:37.017Z,82.84
2017-07-28T21:28:04.626Z,83.20
2017-07-28T21:30:32.300Z,83.68
2017-07-28T21:32:59.902Z,84.35
2017-07-28T21:35:27.513Z,84.71
2017-07-28T21:37:55.169Z,84.55
2017-07-28T21:40:22.801Z,84.24
2017-07-28T21:42:50.412Z,83.58
2017-07-28T21:45:18.082Z,83.73
2017-07-28T21:47:45.720Z,84.11
2017-07-28T21:50:13.344Z,83.91
2017-07-28T21:52:40.987Z,84.99
2017-07-28T21:55:08.600Z,84.18
2017-07-28T21:57:36.216Z,84.18
2017-07-28T22:00:03.870Z,84.86
2017-07-28T22:02:31.496Z,85.39
2017-07-28T22:04:59.137Z,85.57
2017-07-28T22:07:26.821Z,85.85
2017-07-28T22:09:54.428Z,85.59
2017-07-28T22:12:22.037Z,85.60
2017-07-28T22:14:49.728Z,85.74
2017-07-28T22:17:17.369Z,85.45
2017-07-28T22:19:44.978Z,85.31
2017-07-28T22:22:12.652Z,84.36
2017-07-28T22:24:40.290Z,84.92
2017-07-28T22:27:07.947Z,85.03
2017-07-28T22:29:35.666Z,85.22
2017-07-28T22:32:03.389Z,85.16
2017-07-28T22:34:31.115Z,84.00
2017-07-28T22:36:59.063Z,83.16
2017-07-28T22:39:26.898Z,81.90
2017-07-28T22:41:54.641Z,83.82
2017-07-28T22:44:22.295Z,81.13
2017-07-28T22:46:49.906Z,82.01
2017-07-28T22:49:17.521Z,81.57
2017-07-28T22:51:45.167Z,82.42
2017-07-28T22:54:12.769Z,82.79
2017-07-28T22:56:40.370Z,81.98
2017-07-28T22:59:08.121Z,81.06
2017-07-28T23:01:35.727Z,80.26
2017-07-28T23:04:03.347Z,78.47
2017-07-28T23:06:31.011Z,79.39
2017-07-28T23:08:58.632Z,75.23
2017-07-28T23:11:26.256Z,75.15
2017-07-28T23:13:53.936Z,74.97
2017-07-28T23:16:21.556Z,74.82
2017-07-28T23:18:49.168Z,73.56
2017-07-28T23:21:16.838Z,75.92
2017-07-28T23:23:44.438Z,73.27
2017-07-28T23:26:12.037Z,74.97
2017-07-28T23:28:39.743Z,75.77
2017-07-28T23:31:07.352Z,77.65
2017-07-28T23:33:34.964Z,76.12
2017-07-28T23:36:02.623Z,79.77
2017-07-28T23:38:30.214Z,77.16
2017-07-28T23:40:57.858Z,76.11
2017-07-28T23:43:25.517Z,78.95
2017-07-28T23:45:53.156Z,79.20
2017-07-28T23:48:20.788Z,79.31
2017-07-28T23:50:48.449Z,78.28
2017-07-28T23:53:16.058Z,77.96
2017-07-28T23:55:43.692Z,78.23
2017-07-28T23:58:11.412Z,78.58
